Time;durP1;ratioP1;P1;durP2;ratioP2;P2;SDS_P1;SDS_P2;PMS_P1;PMS_P2;Temp;Humidity;BMP_temperature;BMP_pressure;BME280_temperature;BME280_humidity;BME280_pressure;Samples;Min_cycle;Max_cycle;Signal;HPM_P1;HPM_P2
2022/01/10 00:01:45;;;;;;;3.00;2.80;;;0.90;99.90;;;;;;5040809;28;20180;-80
2022/01/10 00:04:11;;;;;;;0.80;0.80;;;0.90;99.90;;;;;;5032044;28;20699;-80
2022/01/10 00:06:37;;;;;;;0.90;0.90;;;1.00;99.90;;;;;;5042435;28;20532;-80
2022/01/10 00:09:03;;;;;;;2.17;1.27;;;1.00;99.90;;;;;;5036877;28;20183;-81
2022/01/10 00:11:29;;;;;;;1.33;1.23;;;1.00;99.90;;;;;;5029780;28;20453;-81
2022/01/10 00:13:55;;;;;;;0.90;0.90;;;1.10;99.90;;;;;;5030460;28;20514;-81
2022/01/10 00:16:20;;;;;;;1.37;1.27;;;1.00;99.90;;;;;;5046323;28;20441;-81
2022/01/10 00:18:46;;;;;;;0.80;0.70;;;1.10;99.90;;;;;;5032536;28;20190;-81
2022/01/10 00:21:11;;;;;;;1.30;1.20;;;1.10;99.90;;;;;;5025592;28;20553;-80
2022/01/10 00:23:37;;;;;;;0.80;0.70;;;1.00;99.90;;;;;;5032275;28;20601;-81
2022/01/10 00:26:03;;;;;;;2.70;2.50;;;1.00;99.90;;;;;;5034656;28;20217;-80
2022/01/10 00:28:28;;;;;;;0.80;0.80;;;1.10;99.90;;;;;;5031342;28;20473;-81
2022/01/10 00:30:54;;;;;;;1.23;1.13;;;1.10;99.90;;;;;;5026207;28;20281;-81
2022/01/10 00:33:20;;;;;;;1.50;1.43;;;1.10;99.90;;;;;;5006518;28;20215;-81
2022/01/10 00:35:46;;;;;;;2.47;2.37;;;1.00;99.90;;;;;;5038699;28;20760;-81
2022/01/10 00:38:12;;;;;;;7.40;3.90;;;1.10;99.90;;;;;;5032431;28;20175;-81
2022/01/10 00:40:39;;;;;;;1.40;1.30;;;1.10;99.90;;;;;;5038022;28;20437;-81
2022/01/10 00:43:05;;;;;;;0.80;0.80;;;1.10;99.90;;;;;;5020469;28;20225;-80
2022/01/10 00:45:31;;;;;;;1.20;1.10;;;1.10;99.90;;;;;;5038559;28;20437;-81
2022/01/10 00:47:59;;;;;;;1.20;1.10;;;1.10;99.90;;;;;;5033377;28;20452;-81
2022/01/10 00:50:26;;;;;;;0.97;0.97;;;1.10;99.90;;;;;;5033600;28;20878;-81
2022/01/10 00:52:52;;;;;;;1.73;1.63;;;1.00;99.90;;;;;;5033521;28;20488;-81
2022/01/10 00:55:18;;;;;;;0.80;0.80;;;1.00;99.90;;;;;;5029102;28;20437;-81
2022/01/10 00:57:44;;;;;;;1.57;1.47;;;1.00;99.90;;;;;;5043812;28;20502;-81
2022/01/10 01:00:12;;;;;;;0.80;0.80;;;1.00;99.90;;;;;;5040099;28;20264;-81
2022/01/10 01:02:39;;;;;;;1.00;1.00;;;1.10;99.90;;;;;;5038455;28;20655;-81
2022/01/10 01:05:08;;;;;;;2.27;2.10;;;1.10;99.90;;;;;;5023144;28;21004;-81
2022/01/10 01:07:35;;;;;;;0.90;0.90;;;1.00;99.90;;;;;;5032596;28;20477;-81
2022/01/10 01:10:27;;;;;;;1.70;1.60;;;1.00;99.90;;;;;;5039325;28;20975;-81
2022/01/10 01:12:53;;;;;;;0.90;0.90;;;1.00;99.90;;;;;;5030023;28;20987;-81
2022/01/10 01:15:23;;;;;;;1.83;1.20;;;1.00;99.90;;;;;;5039339;28;20488;-81
2022/01/10 01:25:51;;;;;;;0.97;0.97;;;1.00;99.90;;;;;;5035128;28;20514;-81
2022/01/10 01:28:16;;;;;;;2.40;1.33;;;1.00;99.90;;;;;;5031860;28;20966;-81
2022/01/10 01:30:44;;;;;;;4.17;3.70;;;1.00;99.90;;;;;;5007683;28;20216;-81
2022/01/10 01:33:13;;;;;;;1.37;1.27;;;1.00;99.90;;;;;;4991014;28;20325;-82
2022/01/10 01:35:39;;;;;;;0.80;0.80;;;1.00;99.90;;;;;;5013572;28;20620;-81
2022/01/10 01:38:05;;;;;;;1.40;1.30;;;1.10;99.90;;;;;;5016060;28;20575;-82
2022/01/10 01:40:33;;;;;;;1.73;1.63;;;1.10;99.90;;;;;;5024509;28;20274;-81
2022/01/10 01:42:58;;;;;;;1.37;1.27;;;1.00;99.90;;;;;;5012619;28;20793;-81
2022/01/10 01:45:46;;;;;;;1.73;1.63;;;1.00;99.90;;;;;;4994637;28;20488;-82
2022/01/10 01:48:12;;;;;;;0.87;0.87;;;1.00;99.90;;;;;;5012276;28;20219;-81
2022/01/10 01:50:37;;;;;;;1.07;1.00;;;1.10;99.90;;;;;;5013445;28;21058;-81
2022/01/10 01:53:05;;;;;;;2.50;2.13;;;1.10;99.90;;;;;;5013652;28;20585;-81
2022/01/10 01:55:31;;;;;;;0.80;0.80;;;1.10;99.90;;;;;;5022247;28;20187;-81
2022/01/10 01:57:57;;;;;;;1.37;1.27;;;1.10;99.90;;;;;;5011089;28;20450;-81
2022/01/10 02:00:24;;;;;;;0.90;0.90;;;1.10;99.90;;;;;;5021003;28;20481;-81
2022/01/10 02:02:51;;;;;;;2.30;2.20;;;1.10;99.90;;;;;;5011932;28;20446;-82
2022/01/10 02:05:16;;;;;;;0.80;0.80;;;1.10;99.90;;;;;;4999387;28;20442;-81
2022/01/10 02:07:42;;;;;;;0.90;0.90;;;1.10;99.90;;;;;;5019150;28;20816;-81
2022/01/10 02:10:08;;;;;;;1.87;1.80;;;1.10;99.90;;;;;;5027973;28;20742;-81
2022/01/10 02:12:33;;;;;;;3.13;1.53;;;1.10;99.90;;;;;;5024912;28;20591;-81
2022/01/10 02:14:59;;;;;;;1.07;1.03;;;1.10;99.90;;;;;;4996134;28;20454;-81
2022/01/10 02:17:34;;;;;;;1.90;1.80;;;1.10;99.90;;;;;;5016948;28;20225;-82
2022/01/10 02:20:01;;;;;;;4.63;2.90;;;1.20;99.90;;;;;;5012840;28;20186;-82
2022/01/10 02:22:27;;;;;;;1.00;1.00;;;1.20;99.90;;;;;;4995771;28;20842;-82
2022/01/10 02:24:52;;;;;;;1.83;1.73;;;1.20;99.90;;;;;;5028600;28;20458;-82
2022/01/10 02:27:22;;;;;;;1.37;1.27;;;1.20;99.90;;;;;;5015724;28;20478;-81
2022/01/10 02:29:48;;;;;;;1.30;1.20;;;1.20;99.90;;;;;;5014354;28;20263;-81
2022/01/10 02:32:13;;;;;;;0.90;0.90;;;1.20;99.90;;;;;;5016966;28;20566;-81
2022/01/10 02:34:39;;;;;;;0.90;0.90;;;1.20;99.90;;;;;;5011262;28;20977;-82
2022/01/10 02:37:04;;;;;;;0.90;0.90;;;1.30;99.90;;;;;;5012292;28;20179;-81
2022/01/10 02:39:30;;;;;;;4.00;1.10;;;1.20;99.90;;;;;;5016846;28;20687;-81
2022/01/10 02:41:56;;;;;;;0.90;0.90;;;1.20;99.90;;;;;;5017587;28;20187;-82
2022/01/10 02:44:22;;;;;;;0.80;0.80;;;1.20;99.90;;;;;;5017721;28;20537;-81
2022/01/10 02:46:47;;;;;;;0.90;0.90;;;1.20;99.90;;;;;;4996928;28;20192;-81
2022/01/10 02:49:27;;;;;;;2.53;2.33;;;1.20;99.90;;;;;;4996695;28;20450;-81
2022/01/10 02:51:55;;;;;;;0.80;0.80;;;1.20;99.90;;;;;;5006133;28;20861;-81
2022/01/10 02:54:24;;;;;;;1.37;1.20;;;1.30;99.90;;;;;;5024244;28;20533;-82
2022/01/10 02:56:57;;;;;;;1.77;1.67;;;1.20;99.90;;;;;;5013107;28;20993;-81
2022/01/10 02:59:24;;;;;;;0.90;0.90;;;1.20;99.90;;;;;;5010190;28;20946;-82
2022/01/10 03:01:50;;;;;;;1.90;1.20;;;1.30;99.90;;;;;;5018887;28;20438;-81
2022/01/10 03:04:16;;;;;;;1.27;1.17;;;1.30;99.90;;;;;;5007225;28;20538;-81
2022/01/10 03:06:43;;;;;;;1.03;1.03;;;1.20;99.90;;;;;;5015232;28;21235;-81
2022/01/10 03:09:10;;;;;;;1.17;1.10;;;1.20;99.90;;;;;;5027376;28;20210;-81
2022/01/10 03:11:38;;;;;;;0.80;0.70;;;1.20;99.90;;;;;;5020834;28;20475;-82
2022/01/10 03:14:04;;;;;;;0.90;0.90;;;1.30;99.90;;;;;;5024659;28;20489;-81
2022/01/10 03:16:29;;;;;;;0.90;0.90;;;1.30;99.90;;;;;;5015561;28;20485;-81
2022/01/10 03:18:55;;;;;;;0.80;0.80;;;1.30;99.90;;;;;;5016655;28;20188;-81
2022/01/10 03:21:21;;;;;;;0.87;0.87;;;1.30;99.90;;;;;;5010868;28;20210;-81
2022/01/10 03:23:47;;;;;;;3.30;1.63;;;1.30;99.90;;;;;;5010245;28;20621;-82
2022/01/10 03:26:13;;;;;;;0.80;0.77;;;1.30;99.90;;;;;;5013659;28;20678;-82
2022/01/10 03:28:39;;;;;;;0.93;0.93;;;1.30;99.90;;;;;;5011881;28;20435;-82
2022/01/10 03:31:04;;;;;;;0.80;0.80;;;1.30;99.90;;;;;;5025396;28;20231;-82
2022/01/10 03:33:30;;;;;;;1.57;1.47;;;1.30;99.90;;;;;;5032435;28;20255;-82
2022/01/10 03:35:56;;;;;;;0.90;0.90;;;1.30;99.90;;;;;;5036796;28;20198;-81
2022/01/10 03:38:22;;;;;;;1.30;1.20;;;1.30;99.90;;;;;;5030934;28;20816;-82
2022/01/10 03:40:48;;;;;;;1.77;1.07;;;1.30;99.90;;;;;;5019266;28;20274;-82
2022/01/10 03:43:13;;;;;;;0.90;0.90;;;1.30;99.90;;;;;;5034190;28;20245;-82
2022/01/10 03:45:39;;;;;;;3.57;1.53;;;1.30;99.90;;;;;;5034378;28;20182;-82
2022/01/10 03:48:04;;;;;;;1.33;1.27;;;1.30;99.90;;;;;;5033911;28;20198;-82
2022/01/10 03:50:30;;;;;;;0.80;0.80;;;1.30;99.90;;;;;;5035281;28;20246;-82
2022/01/10 03:52:56;;;;;;;1.43;1.33;;;1.30;99.90;;;;;;5031254;28;20593;-82
2022/01/10 03:55:22;;;;;;;2.90;2.70;;;1.30;99.90;;;;;;5027464;28;20187;-82
2022/01/10 03:57:47;;;;;;;0.80;0.80;;;1.30;99.90;;;;;;5030804;28;20394;-82
2022/01/10 04:00:16;;;;;;;1.67;1.57;;;1.40;99.90;;;;;;5035365;28;20226;-82
2022/01/10 04:02:46;;;;;;;1.53;1.20;;;1.30;99.90;;;;;;5037202;28;20256;-82
2022/01/10 04:05:11;;;;;;;1.13;1.03;;;1.30;99.90;;;;;;5035113;28;20532;-81
2022/01/10 04:07:37;;;;;;;1.23;1.13;;;1.30;99.90;;;;;;5041244;28;20549;-82
2022/01/10 04:10:04;;;;;;;3.43;2.50;;;1.30;99.90;;;;;;5023136;28;20226;-82
2022/01/10 04:12:30;;;;;;;1.00;0.97;;;1.40;99.90;;;;;;5031870;28;20287;-81
2022/01/10 04:14:55;;;;;;;4.03;1.97;;;1.40;99.90;;;;;;5031114;28;20449;-82
2022/01/10 04:17:21;;;;;;;2.50;2.40;;;1.40;99.90;;;;;;5041640;28;20187;-82
2022/01/10 04:19:46;;;;;;;1.03;1.00;;;1.40;99.90;;;;;;5034321;28;20191;-82
2022/01/10 04:22:12;;;;;;;0.80;0.80;;;1.40;99.90;;;;;;5036661;28;20179;-82
2022/01/10 04:24:38;;;;;;;0.80;0.80;;;1.40;99.90;;;;;;5037026;28;20199;-82
2022/01/10 04:27:04;;;;;;;1.20;1.13;;;1.50;99.90;;;;;;5036409;28;20602;-82
2022/01/10 04:29:30;;;;;;;2.03;1.23;;;1.40;99.90;;;;;;5049213;28;20476;-82
2022/01/10 04:31:55;;;;;;;0.80;0.80;;;1.40;99.90;;;;;;5049607;28;20660;-82
2022/01/10 04:34:21;;;;;;;0.80;0.70;;;1.50;99.90;;;;;;5046499;28;20233;-82
2022/01/10 04:36:46;;;;;;;0.90;0.90;;;1.50;99.90;;;;;;5014062;28;20188;-81
2022/01/10 04:39:12;;;;;;;0.80;0.80;;;1.50;99.90;;;;;;5041096;28;20221;-82
2022/01/10 04:41:39;;;;;;;1.97;1.87;;;1.50;99.90;;;;;;5034414;28;20966;-82
2022/01/10 04:44:08;;;;;;;3.77;3.47;;;1.60;99.90;;;;;;5035553;28;21766;-82
2022/01/10 04:46:34;;;;;;;0.80;0.80;;;1.60;99.90;;;;;;5032907;28;20449;-82
2022/01/10 04:49:01;;;;;;;1.10;1.00;;;1.60;99.90;;;;;;5013584;28;20445;-83
2022/01/10 04:51:29;;;;;;;1.57;1.47;;;1.70;99.90;;;;;;5048951;28;20472;-83
2022/01/10 04:53:55;;;;;;;10.17;2.50;;;1.70;99.90;;;;;;5046998;28;20444;-83
2022/01/10 04:56:21;;;;;;;1.13;1.03;;;1.70;99.90;;;;;;5050607;28;20468;-82
2022/01/10 04:58:48;;;;;;;0.90;0.90;;;1.70;99.90;;;;;;5041742;28;20480;-83
2022/01/10 05:01:15;;;;;;;1.60;1.50;;;1.80;99.90;;;;;;5031381;28;20450;-83
2022/01/10 05:03:40;;;;;;;0.93;0.83;;;1.80;99.90;;;;;;5044435;28;20463;-83
2022/01/10 05:06:06;;;;;;;1.40;1.30;;;1.80;99.90;;;;;;5033754;28;20434;-83
2022/01/10 05:08:32;;;;;;;2.50;2.33;;;1.80;99.90;;;;;;5035434;28;20297;-83
2022/01/10 05:10:58;;;;;;;2.67;2.50;;;1.80;99.90;;;;;;5044367;28;20613;-83
2022/01/10 05:13:25;;;;;;;1.60;1.50;;;1.80;99.90;;;;;;5046488;28;20520;-83
2022/01/10 05:15:51;;;;;;;2.00;1.90;;;1.80;99.90;;;;;;5036038;28;20430;-83
2022/01/10 05:18:20;;;;;;;0.93;0.93;;;1.80;99.90;;;;;;5035142;28;20448;-83
2022/01/10 05:20:47;;;;;;;2.80;1.97;;;1.80;99.90;;;;;;5034254;28;20445;-84
2022/01/10 05:23:13;;;;;;;0.80;0.80;;;1.80;99.90;;;;;;5032353;28;20446;-84
2022/01/10 05:25:40;;;;;;;0.83;0.83;;;1.80;99.90;;;;;;5057701;28;20437;-83
2022/01/10 05:28:07;;;;;;;2.30;2.20;;;1.80;99.90;;;;;;5038591;28;20184;-84
2022/01/10 05:30:33;;;;;;;3.30;1.73;;;1.80;99.90;;;;;;5031610;28;20480;-84
2022/01/10 05:32:59;;;;;;;1.73;1.63;;;1.90;99.90;;;;;;5015583;28;20474;-83
2022/01/10 05:35:24;;;;;;;3.27;2.50;;;1.80;99.90;;;;;;5014571;28;21289;-83
2022/01/10 05:37:50;;;;;;;1.53;1.43;;;1.80;99.90;;;;;;5018181;28;20678;-83
2022/01/10 05:40:15;;;;;;;0.90;0.90;;;1.80;99.90;;;;;;5008616;28;20188;-83
2022/01/10 05:42:41;;;;;;;3.10;2.90;;;1.80;99.90;;;;;;5011011;28;20187;-83
2022/01/10 05:45:07;;;;;;;0.80;0.80;;;1.90;99.90;;;;;;5011530;28;20183;-83
2022/01/10 05:47:41;;;;;;;1.00;1.00;;;1.90;99.90;;;;;;5017522;28;20615;-83
2022/01/10 05:50:08;;;;;;;2.80;2.60;;;1.80;99.90;;;;;;5042264;28;21008;-83
2022/01/10 05:52:34;;;;;;;1.47;1.40;;;1.80;99.90;;;;;;5014373;28;20486;-83
2022/01/10 05:54:59;;;;;;;0.97;0.90;;;1.80;99.90;;;;;;5024133;28;20472;-83
2022/01/10 05:57:25;;;;;;;0.80;0.80;;;1.80;99.90;;;;;;5022034;28;20191;-83
2022/01/10 05:59:51;;;;;;;1.90;1.80;;;1.90;99.90;;;;;;4999343;28;20204;-83
2022/01/10 06:02:16;;;;;;;1.10;1.00;;;1.90;99.90;;;;;;5011954;28;20196;-83
2022/01/10 06:04:42;;;;;;;1.40;1.30;;;1.90;99.90;;;;;;5010968;28;20567;-83
2022/01/10 06:07:07;;;;;;;2.67;2.57;;;1.90;99.90;;;;;;5023693;28;20199;-83
2022/01/10 06:09:33;;;;;;;1.67;1.57;;;2.00;99.90;;;;;;5009672;28;20326;-83
2022/01/10 06:11:58;;;;;;;1.00;1.00;;;2.00;99.90;;;;;;5015134;28;22250;-83
2022/01/10 06:14:24;;;;;;;6.80;6.17;;;2.00;99.90;;;;;;5018556;28;20183;-83
2022/01/10 06:16:49;;;;;;;1.10;1.10;;;2.00;99.90;;;;;;5017650;28;20187;-83
2022/01/10 06:19:15;;;;;;;2.90;2.80;;;2.00;99.90;;;;;;5020822;28;20926;-83
2022/01/10 06:21:40;;;;;;;4.40;3.00;;;2.00;99.90;;;;;;5011922;28;20191;-84
2022/01/10 06:24:07;;;;;;;1.47;1.37;;;2.00;99.90;;;;;;5026412;28;20188;-83
2022/01/10 06:26:32;;;;;;;0.80;0.77;;;2.00;99.90;;;;;;5020621;28;20267;-84
2022/01/10 06:28:58;;;;;;;1.40;1.30;;;2.00;99.90;;;;;;5027473;28;20529;-83
2022/01/10 06:31:23;;;;;;;1.20;1.10;;;2.00;99.90;;;;;;5027324;28;20239;-83
2022/01/10 06:33:49;;;;;;;2.50;2.40;;;2.00;99.90;;;;;;5027158;28;20301;-82
2022/01/10 06:36:14;;;;;;;3.73;3.43;;;2.00;99.90;;;;;;5023529;28;20206;-83
2022/01/10 06:38:40;;;;;;;1.50;1.40;;;2.00;99.90;;;;;;5027885;28;20203;-83
2022/01/10 06:41:05;;;;;;;1.33;1.23;;;2.10;99.90;;;;;;5021656;28;20195;-83
2022/01/10 06:43:31;;;;;;;1.27;1.17;;;2.10;99.90;;;;;;5024167;28;20211;-83
2022/01/10 06:45:57;;;;;;;1.60;1.50;;;2.10;99.90;;;;;;5027905;28;20278;-83
2022/01/10 06:48:23;;;;;;;0.90;0.90;;;2.10;99.90;;;;;;5007829;28;20458;-83
2022/01/10 06:50:51;;;;;;;0.90;0.90;;;2.00;99.90;;;;;;5007814;28;20439;-83
2022/01/10 06:53:18;;;;;;;1.90;1.77;;;2.00;99.90;;;;;;5034892;28;20228;-83
2022/01/10 06:55:43;;;;;;;1.90;1.80;;;2.10;99.90;;;;;;5048106;28;20962;-84
2022/01/10 06:58:09;;;;;;;2.50;2.30;;;2.10;99.90;;;;;;5044990;28;20442;-83
2022/01/10 07:00:36;;;;;;;3.50;2.30;;;2.10;99.90;;;;;;5045006;28;20179;-84
2022/01/10 07:03:02;;;;;;;1.53;1.43;;;2.10;99.90;;;;;;5027460;28;20281;-83
2022/01/10 07:05:28;;;;;;;1.43;1.33;;;2.10;99.90;;;;;;5028582;28;20781;-83
2022/01/10 07:07:54;;;;;;;1.17;1.10;;;2.10;99.90;;;;;;5012006;28;20198;-83
2022/01/10 07:10:20;;;;;;;3.07;2.93;;;2.10;99.90;;;;;;5026881;28;20533;-83
2022/01/10 07:12:45;;;;;;;0.80;0.80;;;2.10;99.90;;;;;;5027770;28;20616;-84
2022/01/10 07:15:11;;;;;;;9.40;3.57;;;2.20;99.90;;;;;;5024116;28;20398;-83
2022/01/10 07:17:37;;;;;;;1.57;1.47;;;2.20;99.90;;;;;;5007427;28;20948;-83
2022/01/10 07:20:03;;;;;;;1.33;1.23;;;2.20;99.90;;;;;;5024681;28;20184;-84
2022/01/10 07:22:28;;;;;;;5.50;2.30;;;2.20;99.90;;;;;;5024883;28;20594;-84
2022/01/10 07:24:54;;;;;;;2.13;2.00;;;2.20;99.90;;;;;;5028996;28;20489;-83
2022/01/10 07:27:20;;;;;;;6.73;3.00;;;2.20;99.90;;;;;;5039181;28;20183;-83
2022/01/10 07:29:49;;;;;;;2.43;2.33;;;2.20;99.90;;;;;;5009834;28;20230;-83
2022/01/10 07:32:15;;;;;;;4.73;1.87;;;2.20;99.90;;;;;;5054683;28;20473;-83
2022/01/10 07:34:40;;;;;;;1.43;1.33;;;2.20;99.90;;;;;;5055237;28;20457;-83
2022/01/10 07:37:06;;;;;;;4.80;2.60;;;2.20;99.90;;;;;;5038371;28;20449;-82
2022/01/10 07:39:32;;;;;;;2.00;1.27;;;2.20;99.90;;;;;;5036598;28;20282;-82
2022/01/10 07:41:57;;;;;;;0.80;0.80;;;2.20;99.90;;;;;;5040947;28;20191;-85
2022/01/10 07:44:23;;;;;;;2.80;2.60;;;2.20;99.90;;;;;;5036112;28;20190;-85
2022/01/10 07:46:49;;;;;;;2.50;2.30;;;2.30;99.90;;;;;;5031005;28;20186;-84
2022/01/10 07:49:14;;;;;;;3.47;3.27;;;2.30;99.90;;;;;;5043877;28;20688;-85
2022/01/10 07:51:40;;;;;;;0.80;0.70;;;2.30;99.90;;;;;;5034095;28;20189;-85
2022/01/10 07:54:06;;;;;;;0.70;0.60;;;2.20;99.90;;;;;;5042069;28;20653;-84
2022/01/10 07:56:31;;;;;;;3.03;2.73;;;2.30;99.90;;;;;;5025686;28;20238;-85
2022/01/10 07:58:57;;;;;;;2.33;2.13;;;2.20;99.90;;;;;;5046086;28;21233;-85
2022/01/10 08:01:23;;;;;;;1.30;1.20;;;2.30;99.90;;;;;;5041420;28;20188;-84
2022/01/10 08:03:50;;;;;;;1.67;1.60;;;2.30;99.90;;;;;;5040756;28;20187;-84
2022/01/10 08:06:19;;;;;;;8.57;2.73;;;2.30;99.90;;;;;;5050532;28;20190;-85
2022/01/10 08:08:45;;;;;;;7.70;4.10;;;2.30;99.90;;;;;;5047777;28;20444;-84
2022/01/10 08:11:11;;;;;;;1.43;1.37;;;2.30;99.90;;;;;;5040157;28;21006;-84
2022/01/10 08:13:36;;;;;;;1.70;1.57;;;2.20;99.90;;;;;;5045643;28;20230;-84
2022/01/10 08:16:03;;;;;;;0.80;0.80;;;2.30;99.90;;;;;;5056803;28;20182;-84
2022/01/10 08:18:30;;;;;;;2.00;1.47;;;2.30;99.90;;;;;;5063703;28;20253;-84
2022/01/10 08:20:56;;;;;;;3.43;3.13;;;2.30;99.90;;;;;;5047069;28;20425;-85
2022/01/10 08:23:22;;;;;;;1.03;1.03;;;2.40;99.90;;;;;;5045244;28;20445;-85
2022/01/10 08:25:48;;;;;;;3.10;2.90;;;2.40;99.90;;;;;;5036211;28;20475;-83
2022/01/10 08:28:14;;;;;;;1.57;1.47;;;2.40;99.90;;;;;;5028224;28;20188;-85
2022/01/10 08:30:39;;;;;;;1.20;1.00;;;2.40;99.90;;;;;;5044583;28;20538;-85
2022/01/10 08:33:05;;;;;;;1.60;1.50;;;2.40;99.90;;;;;;5030950;28;20639;-84
2022/01/10 08:35:31;;;;;;;0.87;0.87;;;2.40;99.90;;;;;;5049726;28;20605;-84
2022/01/10 08:37:57;;;;;;;1.40;1.30;;;2.40;99.90;;;;;;5052318;28;20662;-85
2022/01/10 08:40:23;;;;;;;1.53;1.43;;;2.40;99.90;;;;;;5024942;28;20469;-84
2022/01/10 08:42:48;;;;;;;2.90;2.43;;;2.50;99.90;;;;;;5032801;28;20276;-84
2022/01/10 08:45:14;;;;;;;1.03;1.00;;;2.50;99.90;;;;;;5022952;28;20803;-84
2022/01/10 08:47:39;;;;;;;3.40;3.27;;;2.50;99.90;;;;;;5037485;28;20854;-85
2022/01/10 08:50:07;;;;;;;1.70;1.60;;;2.50;99.90;;;;;;5020676;28;20597;-85
2022/01/10 08:52:33;;;;;;;4.97;3.17;;;2.50;99.90;;;;;;4983454;28;20347;-84
2022/01/10 08:54:59;;;;;;;1.93;1.83;;;2.50;99.90;;;;;;4996326;28;20558;-85
2022/01/10 08:57:25;;;;;;;1.97;1.77;;;2.50;99.90;;;;;;4966639;28;20186;-85
2022/01/10 08:59:51;;;;;;;1.07;1.00;;;2.50;99.90;;;;;;4971883;28;20284;-85
2022/01/10 09:02:17;;;;;;;3.30;1.60;;;2.50;99.90;;;;;;4980868;28;20543;-84
2022/01/10 09:04:43;;;;;;;3.63;3.43;;;2.50;99.90;;;;;;5004722;28;20182;-84
2022/01/10 09:07:09;;;;;;;4.20;3.03;;;2.50;99.90;;;;;;4979582;28;20698;-85
2022/01/10 09:09:36;;;;;;;2.90;2.70;;;2.50;99.90;;;;;;4993244;28;20711;-85
2022/01/10 09:12:03;;;;;;;2.07;1.67;;;2.60;99.90;;;;;;4981150;28;20567;-84
2022/01/10 09:14:29;;;;;;;10.80;5.53;;;2.60;99.90;;;;;;4980306;28;20460;-85
2022/01/10 09:16:55;;;;;;;5.80;2.80;;;2.60;99.90;;;;;;4977673;28;20441;-83
2022/01/10 09:19:20;;;;;;;3.33;3.03;;;2.60;99.90;;;;;;4966457;28;20191;-84
2022/01/10 09:21:47;;;;;;;4.53;4.30;;;2.60;99.90;;;;;;4976872;28;20981;-84
2022/01/10 09:24:13;;;;;;;1.40;1.30;;;2.60;99.90;;;;;;4985466;28;20277;-86
2022/01/10 09:26:39;;;;;;;1.80;1.70;;;2.70;99.90;;;;;;4972002;28;20532;-85
2022/01/10 09:29:05;;;;;;;0.80;0.80;;;2.60;99.90;;;;;;4962580;28;20539;-86
2022/01/10 09:31:30;;;;;;;6.73;2.30;;;2.70;99.90;;;;;;4976158;28;20571;-86
2022/01/10 09:33:56;;;;;;;1.10;1.03;;;2.70;99.90;;;;;;4979433;28;20396;-85
2022/01/10 09:36:24;;;;;;;2.80;1.53;;;2.70;99.90;;;;;;4989745;28;20197;-85
2022/01/10 09:38:50;;;;;;;0.80;0.70;;;2.70;99.90;;;;;;4966433;28;20227;-84
2022/01/10 09:41:16;;;;;;;0.80;0.80;;;2.70;99.90;;;;;;4969926;28;20481;-84
2022/01/10 09:43:48;;;;;;;1.17;1.10;;;2.80;99.90;;;;;;4980913;28;20268;-85
2022/01/10 09:46:13;;;;;;;1.70;1.60;;;2.80;99.90;;;;;;4982422;28;20213;-84
2022/01/10 09:48:39;;;;;;;2.57;2.40;;;2.80;99.90;;;;;;4987265;28;20483;-84
2022/01/10 09:51:04;;;;;;;1.00;0.90;;;2.80;99.90;;;;;;4963515;28;20197;-83
2022/01/10 09:53:30;;;;;;;2.27;2.17;;;2.80;99.90;;;;;;4979828;28;20365;-84
2022/01/10 09:55:56;;;;;;;1.40;1.30;;;2.80;99.90;;;;;;4981161;28;20193;-84
2022/01/10 09:58:22;;;;;;;1.63;1.53;;;2.90;99.90;;;;;;4972758;28;20478;-84
2022/01/10 10:00:48;;;;;;;2.57;2.47;;;2.90;99.90;;;;;;4970259;28;20196;-85
2022/01/10 10:03:14;;;;;;;3.83;3.53;;;2.90;99.90;;;;;;4967283;28;20830;-84
2022/01/10 10:05:42;;;;;;;1.30;1.20;;;2.90;99.90;;;;;;4971669;28;20428;-84
2022/01/10 10:08:09;;;;;;;3.57;3.23;;;3.00;99.90;;;;;;4983047;28;20567;-84
2022/01/10 10:10:35;;;;;;;11.10;3.50;;;3.00;99.90;;;;;;4999787;28;20428;-83
2022/01/10 10:13:00;;;;;;;2.63;2.43;;;3.00;99.90;;;;;;4981895;28;20484;-84
2022/01/10 10:15:31;;;;;;;1.43;1.33;;;3.00;99.90;;;;;;4985146;28;20445;-85
2022/01/10 10:17:56;;;;;;;3.37;3.13;;;3.00;99.90;;;;;;4996114;28;20563;-85
2022/01/10 10:20:23;;;;;;;4.73;4.43;;;3.00;99.90;;;;;;4978018;28;20455;-85
2022/01/10 10:22:53;;;;;;;1.67;1.57;;;3.10;99.90;;;;;;4973577;28;20205;-84
2022/01/10 10:25:19;;;;;;;3.57;3.33;;;3.10;99.90;;;;;;4998159;28;20435;-84
2022/01/10 10:27:47;;;;;;;5.13;2.17;;;3.10;99.90;;;;;;4982534;28;20554;-84
2022/01/10 10:30:23;;;;;;;1.37;1.27;;;3.10;99.90;;;;;;4983614;28;20464;-84
2022/01/10 10:32:50;;;;;;;3.40;3.20;;;3.10;99.90;;;;;;4981372;28;20487;-84
2022/01/10 10:35:16;;;;;;;2.30;1.67;;;3.10;99.90;;;;;;4994398;28;20459;-83
2022/01/10 10:37:44;;;;;;;4.00;3.67;;;3.10;99.90;;;;;;4986463;28;20449;-84
2022/01/10 10:40:14;;;;;;;1.90;1.80;;;3.10;99.90;;;;;;4986875;28;20441;-85
2022/01/10 10:42:41;;;;;;;2.60;2.40;;;3.10;99.90;;;;;;4967848;28;20443;-84
2022/01/10 10:45:09;;;;;;;2.77;2.53;;;3.10;99.90;;;;;;4981038;28;20456;-84
2022/01/10 10:47:36;;;;;;;2.93;2.83;;;3.20;99.90;;;;;;4976394;28;20437;-84
2022/01/10 10:50:05;;;;;;;1.80;1.70;;;3.20;99.90;;;;;;4966597;28;20948;-84
2022/01/10 10:52:37;;;;;;;1.67;1.57;;;3.20;99.90;;;;;;4973960;28;20475;-84
2022/01/10 10:55:06;;;;;;;3.10;2.90;;;3.20;99.90;;;;;;4987353;28;20878;-84
2022/01/10 10:57:32;;;;;;;3.60;1.80;;;3.20;99.90;;;;;;4987289;28;20964;-85
2022/01/10 11:00:00;;;;;;;1.63;1.53;;;3.20;99.90;;;;;;4962888;28;20448;-85
2022/01/10 11:02:27;;;;;;;3.17;2.13;;;3.20;99.90;;;;;;4978290;28;20444;-84
2022/01/10 11:04:54;;;;;;;1.77;1.67;;;3.10;99.90;;;;;;4979526;28;20449;-85
2022/01/10 11:07:23;;;;;;;7.73;2.93;;;3.20;99.90;;;;;;4988590;28;20523;-86
2022/01/10 11:09:49;;;;;;;1.77;1.67;;;3.20;99.90;;;;;;4977302;28;20453;-85
2022/01/10 11:12:17;;;;;;;1.50;1.40;;;3.20;99.90;;;;;;4971231;28;20521;-85
2022/01/10 11:14:43;;;;;;;1.93;1.77;;;3.20;99.90;;;;;;4965526;28;20987;-85
2022/01/10 11:17:19;;;;;;;1.13;1.03;;;3.20;99.90;;;;;;4974007;28;20969;-84
2022/01/10 11:20:06;;;;;;;1.27;1.17;;;3.20;99.90;;;;;;4959141;28;20822;-86
2022/01/10 11:22:31;;;;;;;1.23;1.13;;;3.10;99.90;;;;;;5000822;28;20472;-86
2022/01/10 11:24:57;;;;;;;5.27;4.97;;;3.10;99.90;;;;;;4977186;28;20488;-84
2022/01/10 11:27:31;;;;;;;4.00;3.70;;;3.10;99.90;;;;;;4984138;28;20262;-86
2022/01/10 11:29:58;;;;;;;2.83;2.73;;;3.20;99.90;;;;;;4965635;28;20217;-86
2022/01/10 11:32:48;;;;;;;6.67;4.93;;;3.20;99.90;;;;;;4977597;28;20475;-86
2022/01/10 11:35:14;;;;;;;1.20;1.10;;;3.20;99.90;;;;;;4977521;28;20965;-86
2022/01/10 11:37:40;;;;;;;1.70;0.97;;;3.30;99.90;;;;;;5005816;28;20439;-87
2022/01/10 11:40:07;;;;;;;3.63;3.20;;;3.30;99.90;;;;;;5010757;28;20441;-87
2022/01/10 11:42:46;;;;;;;6.80;4.47;;;3.30;99.90;;;;;;4967741;28;20190;-87
2022/01/10 11:45:14;;;;;;;3.53;2.70;;;3.30;99.90;;;;;;4966440;28;21203;-87
2022/01/10 11:48:01;;;;;;;8.63;2.70;;;3.30;99.90;;;;;;4985037;28;20469;-86
2022/01/10 11:50:30;;;;;;;3.77;3.57;;;3.30;99.90;;;;;;4986755;28;20456;-87
2022/01/10 11:53:04;;;;;;;3.20;2.47;;;3.30;99.90;;;;;;4985312;28;20531;-87
2022/01/10 11:55:43;;;;;;;1.43;1.33;;;3.30;99.90;;;;;;4983209;28;20463;-87
2022/01/10 11:58:16;;;;;;;3.10;2.90;;;3.30;99.90;;;;;;4987535;28;20491;-86
2022/01/10 12:00:42;;;;;;;1.30;1.20;;;3.30;99.90;;;;;;4979070;28;20447;-86
2022/01/10 12:03:08;;;;;;;3.83;3.53;;;3.30;99.90;;;;;;4961925;28;20443;-87
2022/01/10 12:05:34;;;;;;;4.40;3.20;;;3.30;99.90;;;;;;4974384;28;20527;-87
2022/01/10 12:08:04;;;;;;;1.93;1.83;;;3.30;99.90;;;;;;4980949;28;20511;-87
2022/01/10 12:10:30;;;;;;;3.33;3.13;;;3.30;99.90;;;;;;4951756;28;20252;-87
2022/01/10 12:13:05;;;;;;;1.70;1.60;;;3.40;99.90;;;;;;4983048;28;20484;-87
2022/01/10 12:15:33;;;;;;;6.60;3.90;;;3.40;99.90;;;;;;4998438;28;20441;-87
2022/01/10 12:17:58;;;;;;;1.93;1.83;;;3.40;99.90;;;;;;4991528;28;20439;-87
2022/01/10 12:20:24;;;;;;;4.90;2.70;;;3.40;99.90;;;;;;4973380;28;20434;-87
2022/01/10 12:22:53;;;;;;;2.10;2.00;;;3.30;99.90;;;;;;4975236;28;20190;-89
2022/01/10 12:25:19;;;;;;;4.00;3.80;;;3.30;99.90;;;;;;4997281;28;20192;-87
2022/01/10 12:27:45;;;;;;;2.40;2.20;;;3.40;99.90;;;;;;4978467;28;20472;-87
2022/01/10 12:30:11;;;;;;;1.37;1.00;;;3.30;99.90;;;;;;4988135;28;20518;-87
2022/01/10 12:32:38;;;;;;;4.93;4.63;;;3.30;99.90;;;;;;4959879;28;20724;-87
2022/01/10 12:35:04;;;;;;;1.23;1.13;;;3.40;99.90;;;;;;4971479;28;20724;-87
2022/01/10 12:37:30;;;;;;;0.80;0.77;;;3.30;99.90;;;;;;4990960;28;20450;-87
2022/01/10 12:39:56;;;;;;;5.70;5.17;;;3.40;99.90;;;;;;4994271;28;20439;-87
2022/01/10 12:42:26;;;;;;;4.73;4.33;;;3.40;99.90;;;;;;4975777;28;20239;-87
2022/01/10 12:44:52;;;;;;;1.77;1.67;;;3.30;99.90;;;;;;4983300;28;20443;-86
2022/01/10 12:47:18;;;;;;;4.77;2.73;;;3.30;99.90;;;;;;4989640;28;20457;-85
2022/01/10 12:49:47;;;;;;;2.93;2.73;;;3.40;99.90;;;;;;4988404;28;20455;-85
2022/01/10 12:52:13;;;;;;;1.50;1.40;;;3.40;99.90;;;;;;4980262;28;20548;-85
2022/01/10 12:54:39;;;;;;;2.23;2.13;;;3.40;99.90;;;;;;4988786;28;20898;-85
2022/01/10 12:57:06;;;;;;;1.70;1.60;;;3.30;99.90;;;;;;4989280;28;20435;-86
2022/01/10 12:59:35;;;;;;;3.43;3.13;;;3.30;99.90;;;;;;4973643;28;20449;-85
2022/01/10 13:02:03;;;;;;;2.40;2.30;;;3.40;99.90;;;;;;4969672;28;20433;-85
2022/01/10 13:04:34;;;;;;;1.97;1.87;;;3.40;99.90;;;;;;4968180;28;20466;-85